createdAt,value
2018-07-08T00:00:54.717Z,23.60
2018-07-08T00:01:54.694Z,19.70
2018-07-08T00:02:54.665Z,21.70
2018-07-08T00:03:57.464Z,18.20
2018-07-08T00:04:54.612Z,19.30
2018-07-08T00:05:54.587Z,17.50
2018-07-08T00:06:54.561Z,19.10
2018-07-08T00:07:54.538Z,19.00
2018-07-08T00:08:54.714Z,18.10
2018-07-08T00:09:54.486Z,17.00
2018-07-08T00:10:54.664Z,16.50
2018-07-08T00:11:54.434Z,17.90
2018-07-08T00:12:54.409Z,20.10
2018-07-08T00:13:54.390Z,22.00
2018-07-08T00:14:54.357Z,20.70
2018-07-08T00:15:54.333Z,16.30
2018-07-08T00:16:54.305Z,16.40
2018-07-08T00:17:54.280Z,16.40
2018-07-08T00:18:54.257Z,17.70
2018-07-08T00:19:54.436Z,22.70
2018-07-08T00:20:54.412Z,16.40
2018-07-08T00:21:54.181Z,18.30
2018-07-08T00:22:55.167Z,22.10
2018-07-08T00:23:54.137Z,16.80
2018-07-08T00:24:54.305Z,16.10
2018-07-08T00:25:54.077Z,17.00
2018-07-08T00:26:54.052Z,19.70
2018-07-08T00:27:54.029Z,19.80
2018-07-08T00:28:54.003Z,19.70
2018-07-08T00:29:53.977Z,19.30
2018-07-08T00:30:53.956Z,19.20
2018-07-08T00:31:53.925Z,19.80
2018-07-08T00:32:53.901Z,15.80
2018-07-08T00:33:53.875Z,21.20
2018-07-08T00:34:53.848Z,17.00
2018-07-08T00:35:53.822Z,21.10
2018-07-08T00:36:53.797Z,19.00
2018-07-08T00:37:53.769Z,16.90
2018-07-08T00:38:53.745Z,21.70
2018-07-08T00:39:53.748Z,22.40
2018-07-08T00:40:53.697Z,20.20
2018-07-08T00:41:53.671Z,16.90
2018-07-08T00:42:53.645Z,19.70
2018-07-08T00:43:53.618Z,20.50
2018-07-08T00:44:53.591Z,17.60
2018-07-08T00:45:53.568Z,21.40
2018-07-08T00:46:53.747Z,23.10
2018-07-08T00:47:53.520Z,20.50
2018-07-08T00:48:53.790Z,17.60
2018-07-08T00:49:53.464Z,19.20
2018-07-08T00:50:53.440Z,16.70
2018-07-08T00:51:53.415Z,20.10
2018-07-08T00:52:53.391Z,19.90
2018-07-08T00:53:53.395Z,16.20
2018-07-08T00:54:53.339Z,24.30
2018-07-08T00:55:53.311Z,20.20
2018-07-08T00:56:53.287Z,22.70
2018-07-08T00:57:53.259Z,20.60
2018-07-08T00:58:53.234Z,20.00
2018-07-08T00:59:53.213Z,21.50
2018-07-08T01:00:53.185Z,17.00
2018-07-08T01:01:53.160Z,22.30
2018-07-08T01:02:53.134Z,21.40
2018-07-08T01:03:53.132Z,16.60
2018-07-08T01:04:53.083Z,21.10
2018-07-08T01:05:53.057Z,18.30
2018-07-08T01:06:53.032Z,23.60
2018-07-08T01:07:53.008Z,23.10
2018-07-08T01:08:52.980Z,22.50
2018-07-08T01:09:52.953Z,23.80
2018-07-08T01:10:52.928Z,16.70
2018-07-08T01:11:52.909Z,21.80
2018-07-08T01:12:52.879Z,22.50
2018-07-08T01:13:52.853Z,25.50
2018-07-08T01:14:52.827Z,20.40
2018-07-08T01:15:52.802Z,20.60
2018-07-08T01:16:52.779Z,23.00
2018-07-08T01:17:52.749Z,17.20
2018-07-08T01:18:53.524Z,21.10
2018-07-08T01:19:52.697Z,21.60
2018-07-08T01:20:52.673Z,20.90
2018-07-08T01:21:52.647Z,19.00
2018-07-08T01:22:52.624Z,20.70
2018-07-08T01:23:52.599Z,19.10
2018-07-08T01:24:52.572Z,19.50
2018-07-08T01:25:52.551Z,20.40
2018-07-08T01:26:52.522Z,15.40
2018-07-08T01:27:52.494Z,24.90
2018-07-08T01:28:52.469Z,15.30
2018-07-08T01:29:52.443Z,14.90
2018-07-08T01:30:52.421Z,24.40
2018-07-08T01:31:52.440Z,19.70
2018-07-08T01:32:52.370Z,16.30
2018-07-08T01:33:52.344Z,23.90
2018-07-08T01:34:52.317Z,18.70
2018-07-08T01:35:52.290Z,20.30
2018-07-08T01:36:52.267Z,20.80
2018-07-08T01:37:52.243Z,19.90
2018-07-08T01:38:52.214Z,23.60
2018-07-08T01:39:52.191Z,19.30
2018-07-08T01:40:52.164Z,24.40
2018-07-08T01:41:52.139Z,24.30
2018-07-08T01:42:52.113Z,21.80
2018-07-08T01:43:52.085Z,19.00
2018-07-08T01:44:52.060Z,15.70
2018-07-08T01:45:52.040Z,13.60
2018-07-08T01:46:52.010Z,17.80
2018-07-08T01:47:51.985Z,15.70
2018-07-08T01:48:51.960Z,24.30
2018-07-08T01:49:51.933Z,23.40
2018-07-08T01:50:51.907Z,21.50
2018-07-08T01:51:51.884Z,24.30
2018-07-08T01:52:51.856Z,24.70
2018-07-08T01:53:51.864Z,18.50
2018-07-08T01:54:51.811Z,23.10
2018-07-08T01:55:51.778Z,20.10
2018-07-08T01:56:51.753Z,21.40
2018-07-08T01:57:51.750Z,17.30
2018-07-08T01:58:51.702Z,22.90
2018-07-08T01:59:51.678Z,18.70
2018-07-08T02:00:51.651Z,21.00
2018-07-08T02:01:51.626Z,23.20
2018-07-08T02:02:51.602Z,18.50
2018-07-08T02:03:51.573Z,21.90
2018-07-08T02:04:51.548Z,21.80
2018-07-08T02:05:51.526Z,22.80
2018-07-08T02:06:51.502Z,18.40
2018-07-08T02:07:51.484Z,22.40
2018-07-08T02:08:51.452Z,25.00
2018-07-08T02:09:51.425Z,19.70
2018-07-08T02:10:51.396Z,24.70
2018-07-08T02:11:51.371Z,14.80
2018-07-08T02:12:51.344Z,22.30
2018-07-08T02:13:51.318Z,18.20
2018-07-08T02:14:51.292Z,21.10
2018-07-08T02:15:51.467Z,26.10
2018-07-08T02:16:51.440Z,20.60
2018-07-08T02:17:51.213Z,22.20
2018-07-08T02:18:51.189Z,16.70
2018-07-08T02:19:51.173Z,19.70
2018-07-08T02:20:51.138Z,18.90
2018-07-08T02:21:51.111Z,16.40
2018-07-08T02:22:51.085Z,19.00
2018-07-08T02:23:51.060Z,20.70
2018-07-08T02:24:51.036Z,21.40
2018-07-08T02:25:51.009Z,21.50
2018-07-08T02:26:50.983Z,20.90
2018-07-08T02:27:50.955Z,20.10
2018-07-08T02:28:50.929Z,18.40
2018-07-08T02:29:50.903Z,24.90
2018-07-08T02:30:50.888Z,23.60
2018-07-08T02:31:50.856Z,20.60
2018-07-08T02:32:50.828Z,20.70
2018-07-08T02:33:50.810Z,28.70
2018-07-08T02:34:51.278Z,19.90
2018-07-08T02:35:50.751Z,17.10
2018-07-08T02:36:50.724Z,20.10
2018-07-08T02:37:50.699Z,21.90
2018-07-08T02:38:50.675Z,18.40
2018-07-08T02:39:50.647Z,27.00
2018-07-08T02:40:50.620Z,20.30
2018-07-08T02:41:50.594Z,25.30
2018-07-08T02:42:50.576Z,25.00
2018-07-08T02:43:50.546Z,23.80
2018-07-08T02:44:50.525Z,20.20
2018-07-08T02:45:50.503Z,20.90
2018-07-08T02:46:50.467Z,20.80
2018-07-08T02:47:50.442Z,24.10
2018-07-08T02:48:50.414Z,19.10
2018-07-08T02:49:50.388Z,23.20
2018-07-08T02:50:50.365Z,24.00
2018-07-08T02:51:50.339Z,21.60
2018-07-08T02:52:50.519Z,22.00
2018-07-08T02:53:50.898Z,27.40
2018-07-08T02:54:50.471Z,21.00
2018-07-08T02:55:50.438Z,23.80
2018-07-08T02:56:50.411Z,24.90
2018-07-08T02:57:50.384Z,21.20
2018-07-08T02:58:52.981Z,20.00
2018-07-08T02:59:50.332Z,18.10
2018-07-08T03:00:50.103Z,23.20
2018-07-08T03:01:50.080Z,24.90
2018-07-08T03:02:50.053Z,21.50
2018-07-08T03:03:50.235Z,22.10
2018-07-08T03:04:50.012Z,17.90
2018-07-08T03:05:49.981Z,23.90
2018-07-08T03:06:49.951Z,24.40
2018-07-08T03:07:49.937Z,20.00
2018-07-08T03:08:49.896Z,18.40
2018-07-08T03:09:49.869Z,23.50
2018-07-08T03:10:49.844Z,26.10
2018-07-08T03:11:49.818Z,23.20
2018-07-08T03:12:49.792Z,20.10
2018-07-08T03:13:49.766Z,16.80
2018-07-08T03:14:49.740Z,26.20
2018-07-08T03:15:49.918Z,18.60
2018-07-08T03:16:49.692Z,21.90
2018-07-08T03:17:49.668Z,17.40
2018-07-08T03:18:49.640Z,21.70
2018-07-08T03:19:49.611Z,13.60
2018-07-08T03:20:49.589Z,19.80
2018-07-08T03:21:49.559Z,23.80
2018-07-08T03:22:49.535Z,18.80
2018-07-08T03:23:49.512Z,22.70
2018-07-08T03:24:49.486Z,21.00
2018-07-08T03:25:49.462Z,21.30
2018-07-08T03:26:49.431Z,19.00
2018-07-08T03:27:49.408Z,21.90
2018-07-08T03:28:49.380Z,20.60
2018-07-08T03:29:49.355Z,18.30
2018-07-08T03:30:49.330Z,20.00
2018-07-08T03:31:49.303Z,19.90
2018-07-08T03:32:49.277Z,22.50
2018-07-08T03:33:49.252Z,22.00
2018-07-08T03:34:49.223Z,24.50
2018-07-08T03:35:49.201Z,28.00
2018-07-08T03:36:49.175Z,21.50
2018-07-08T03:37:49.349Z,19.70
2018-07-08T03:38:49.122Z,22.20
2018-07-08T03:39:49.296Z,19.70
2018-07-08T03:40:49.068Z,23.80
2018-07-08T03:41:49.043Z,16.00
2018-07-08T03:42:49.218Z,17.60
2018-07-08T03:43:48.995Z,21.80
2018-07-08T03:44:48.967Z,22.10
2018-07-08T03:45:48.943Z,18.70
2018-07-08T03:46:48.915Z,19.00
2018-07-08T03:47:48.889Z,28.10
2018-07-08T03:48:48.861Z,22.30
2018-07-08T03:49:48.833Z,15.90
2018-07-08T03:50:48.810Z,18.30
2018-07-08T03:51:48.785Z,23.30
2018-07-08T03:52:48.760Z,19.30
2018-07-08T03:53:48.739Z,17.50
2018-07-08T03:54:48.710Z,19.20
2018-07-08T03:55:48.684Z,19.00
2018-07-08T03:56:48.656Z,24.00
2018-07-08T03:57:48.628Z,23.30
2018-07-08T03:58:48.609Z,22.30
2018-07-08T03:59:48.579Z,14.00
2018-07-08T04:00:48.557Z,18.00
2018-07-08T04:01:48.732Z,24.10
2018-07-08T04:02:48.502Z,19.60
2018-07-08T04:03:48.479Z,22.30
2018-07-08T04:04:48.453Z,18.30
2018-07-08T04:05:48.426Z,18.40
2018-07-08T04:06:48.402Z,20.00
2018-07-08T04:07:48.374Z,20.50
2018-07-08T04:08:48.350Z,23.70
2018-07-08T04:09:48.324Z,24.40
2018-07-08T04:10:48.299Z,21.70
2018-07-08T04:11:48.276Z,15.10
2018-07-08T04:12:48.253Z,18.40
2018-07-08T04:13:48.225Z,21.90
2018-07-08T04:14:48.202Z,16.40
2018-07-08T04:15:48.176Z,16.30
2018-07-08T04:16:48.156Z,18.60
2018-07-08T04:17:48.130Z,16.10
2018-07-08T04:18:48.101Z,21.20
2018-07-08T04:19:48.074Z,21.80
2018-07-08T04:20:48.049Z,20.20
2018-07-08T04:21:48.025Z,18.00
2018-07-08T04:22:48.000Z,21.90
2018-07-08T04:23:48.186Z,16.50
2018-07-08T04:24:47.953Z,20.90
2018-07-08T04:25:47.927Z,23.50
2018-07-08T04:26:47.911Z,16.00
2018-07-08T04:27:47.879Z,18.00
2018-07-08T04:28:47.852Z,15.40
2018-07-08T04:29:47.825Z,21.40
2018-07-08T04:30:47.802Z,17.00
2018-07-08T04:31:47.776Z,19.90
2018-07-08T04:32:47.753Z,22.30
2018-07-08T04:33:47.728Z,17.90
2018-07-08T04:34:47.705Z,16.90
2018-07-08T04:35:47.682Z,16.40
2018-07-08T04:36:50.887Z,14.10
2018-07-08T04:38:29.983Z,18.10
2018-07-08T04:39:29.960Z,20.30
2018-07-08T04:40:29.934Z,16.30
2018-07-08T04:41:29.711Z,19.70
2018-07-08T04:42:29.685Z,15.90
2018-07-08T04:43:29.672Z,13.70
2018-07-08T04:44:29.639Z,18.80
2018-07-08T04:45:29.612Z,13.60
2018-07-08T04:46:29.589Z,20.00
2018-07-08T04:47:29.563Z,16.90
2018-07-08T04:48:29.589Z,18.10
2018-07-08T04:49:29.517Z,18.80
2018-07-08T04:50:29.494Z,18.40
2018-07-08T04:51:29.678Z,18.60
2018-07-08T04:52:29.445Z,20.30
2018-07-08T04:53:29.420Z,15.30
2018-07-08T04:54:29.398Z,18.30
2018-07-08T04:55:29.373Z,17.90
2018-07-08T04:56:29.350Z,13.50
2018-07-08T04:57:29.325Z,14.30
2018-07-08T04:58:29.503Z,15.40
2018-07-08T04:59:29.276Z,20.60
2018-07-08T05:00:29.254Z,17.60
2018-07-08T05:01:29.432Z,13.90
2018-07-08T05:02:32.033Z,16.20
2018-07-08T05:03:29.791Z,15.10
2018-07-08T05:04:29.361Z,16.30
2018-07-08T05:05:29.337Z,14.20
2018-07-08T05:06:29.363Z,19.60
2018-07-08T05:07:29.288Z,12.90
2018-07-08T05:08:29.064Z,17.10
2018-07-08T05:09:29.041Z,15.60
2018-07-08T05:10:29.018Z,18.60
2018-07-08T05:11:28.993Z,16.10
2018-07-08T05:12:28.969Z,14.60
2018-07-08T05:13:28.949Z,14.00
2018-07-08T05:14:28.932Z,17.20
2018-07-08T05:15:28.901Z,19.40
2018-07-08T05:16:28.883Z,15.90
2018-07-08T05:17:28.855Z,15.70
2018-07-08T05:18:28.832Z,16.00
2018-07-08T05:19:28.809Z,12.40
2018-07-08T05:20:28.857Z,16.40
2018-07-08T05:21:28.765Z,13.30
2018-07-08T05:22:28.741Z,15.10
2018-07-08T05:23:28.726Z,18.70
2018-07-08T05:24:28.696Z,13.80
2018-07-08T05:25:28.672Z,16.10
2018-07-08T05:26:28.651Z,16.00
2018-07-08T05:27:28.628Z,17.30
2018-07-08T05:28:28.603Z,13.30
2018-07-08T05:29:28.583Z,21.90
2018-07-08T05:30:28.557Z,13.00
2018-07-08T05:31:28.534Z,15.70
2018-07-08T05:32:28.513Z,15.30
2018-07-08T05:33:28.492Z,11.30
2018-07-08T05:34:28.472Z,17.30
2018-07-08T05:35:28.447Z,15.90
2018-07-08T05:36:28.426Z,14.00
2018-07-08T05:37:28.404Z,16.60
2018-07-08T05:38:28.379Z,15.80
2018-07-08T05:39:28.356Z,15.50
2018-07-08T05:40:28.335Z,13.80
2018-07-08T05:41:28.315Z,16.10
2018-07-08T05:42:28.292Z,15.10
2018-07-08T05:43:28.270Z,14.60
2018-07-08T05:44:28.249Z,11.50
2018-07-08T05:45:28.227Z,15.30
2018-07-08T05:46:28.204Z,13.90
2018-07-08T05:47:28.181Z,17.50
2018-07-08T05:48:28.159Z,14.90
2018-07-08T05:49:28.140Z,14.00
2018-07-08T05:50:28.265Z,13.90
2018-07-08T05:51:28.095Z,13.20
2018-07-08T05:52:28.075Z,16.20
2018-07-08T05:53:28.051Z,15.90
2018-07-08T05:54:28.030Z,16.90
2018-07-08T05:55:28.009Z,16.70
2018-07-08T05:56:27.987Z,13.10
2018-07-08T05:57:28.172Z,13.10
2018-07-08T05:58:27.948Z,15.00
2018-07-08T05:59:27.923Z,13.00
2018-07-08T06:00:27.902Z,14.00
2018-07-08T06:01:27.883Z,13.80
2018-07-08T06:02:27.863Z,16.70
2018-07-08T06:03:27.843Z,13.60
2018-07-08T06:04:27.822Z,16.60
2018-07-08T06:05:27.799Z,14.00
2018-07-08T06:06:27.776Z,12.00
2018-07-08T06:07:27.755Z,11.70
2018-07-08T06:08:27.735Z,16.50
2018-07-08T06:09:27.716Z,11.70
2018-07-08T06:10:27.696Z,13.10
2018-07-08T06:11:27.675Z,15.80
2018-07-08T06:12:27.653Z,14.30
2018-07-08T06:13:27.635Z,18.90
2018-07-08T06:14:27.620Z,11.70
2018-07-08T06:15:27.624Z,14.10
2018-07-08T06:16:27.573Z,14.70
2018-07-08T06:17:27.555Z,17.20
2018-07-08T06:18:27.735Z,15.30
2018-07-08T06:19:27.515Z,11.60
2018-07-08T06:20:27.694Z,14.60
2018-07-08T06:21:27.478Z,13.30
2018-07-08T06:22:27.454Z,16.40
2018-07-08T06:23:27.634Z,13.70
2018-07-08T06:24:27.414Z,14.80
2018-07-08T06:25:27.596Z,12.40
2018-07-08T06:26:27.373Z,13.30
2018-07-08T06:27:27.353Z,12.60
2018-07-08T06:28:27.333Z,13.40
2018-07-08T06:29:27.315Z,14.70
2018-07-08T06:30:27.294Z,15.90
2018-07-08T06:31:27.274Z,17.50
2018-07-08T06:32:27.297Z,13.40
2018-07-08T06:33:27.243Z,11.10
2018-07-08T06:34:27.220Z,15.80
2018-07-08T06:35:27.199Z,11.30
2018-07-08T06:36:27.179Z,12.80
2018-07-08T06:37:27.161Z,13.30
2018-07-08T06:38:27.140Z,13.80
2018-07-08T06:39:27.141Z,15.10
2018-07-08T06:40:27.105Z,11.90
2018-07-08T06:41:27.083Z,13.40
2018-07-08T06:42:27.076Z,13.10
2018-07-08T06:43:27.046Z,13.20
2018-07-08T06:44:27.027Z,11.80
2018-07-08T06:45:27.009Z,14.90
2018-07-08T06:46:26.994Z,13.80
2018-07-08T06:47:26.971Z,15.90
2018-07-08T06:48:26.951Z,12.50
2018-07-08T06:49:26.932Z,11.30
2018-07-08T06:50:26.916Z,12.30
2018-07-08T06:51:26.895Z,12.30
2018-07-08T06:52:26.877Z,12.30
2018-07-08T06:53:26.861Z,10.80
2018-07-08T06:54:26.847Z,13.30
2018-07-08T06:55:26.828Z,13.50
2018-07-08T06:56:26.808Z,12.40
2018-07-08T06:57:26.786Z,13.20
2018-07-08T06:58:26.769Z,11.50
2018-07-08T06:59:26.754Z,14.50
2018-07-08T07:00:26.731Z,13.80
2018-07-08T07:01:26.714Z,13.30
2018-07-08T07:02:26.696Z,13.20
2018-07-08T07:03:26.677Z,13.80
2018-07-08T07:04:26.659Z,12.60
2018-07-08T07:05:26.647Z,16.80
2018-07-08T07:06:26.627Z,11.30
2018-07-08T07:07:26.608Z,12.90
2018-07-08T07:08:26.591Z,11.90
2018-07-08T07:09:26.573Z,13.50
2018-07-08T07:10:26.554Z,12.90
2018-07-08T07:11:26.538Z,13.10
2018-07-08T07:12:26.518Z,13.40
2018-07-08T07:13:26.504Z,14.60
2018-07-08T07:14:26.485Z,12.70
2018-07-08T07:15:26.467Z,11.70
2018-07-08T07:16:26.454Z,12.80
2018-07-08T07:17:26.467Z,12.60
2018-07-08T07:18:26.620Z,11.90
2018-07-08T07:19:26.403Z,12.40
2018-07-08T07:20:26.382Z,11.60
2018-07-08T07:21:26.364Z,11.10
2018-07-08T07:22:26.348Z,12.70
2018-07-08T07:23:26.328Z,12.00
2018-07-08T07:24:26.512Z,7.50
2018-07-08T07:25:26.299Z,11.30
2018-07-08T07:26:26.480Z,11.60
2018-07-08T07:27:26.464Z,11.70
2018-07-08T07:28:26.260Z,9.00
2018-07-08T07:29:26.427Z,12.80
2018-07-08T07:30:26.410Z,11.50
2018-07-08T07:31:26.190Z,13.70
2018-07-08T07:32:26.376Z,9.40
2018-07-08T07:34:50.673Z,12.00
2018-07-08T07:35:50.656Z,13.50
2018-07-08T07:36:50.438Z,13.30
2018-07-08T07:37:50.423Z,7.30
2018-07-08T07:38:50.405Z,12.50
2018-07-08T07:39:50.393Z,11.20
2018-07-08T07:40:50.372Z,11.00
2018-07-08T07:41:50.353Z,11.60
2018-07-08T07:42:50.336Z,9.40
2018-07-08T07:43:50.321Z,12.30
2018-07-08T07:44:50.301Z,12.90
2018-07-08T07:45:50.289Z,13.90
2018-07-08T07:46:50.271Z,11.00
2018-07-08T07:47:50.255Z,8.50
2018-07-08T07:48:50.240Z,12.50
2018-07-08T07:49:50.222Z,10.50
2018-07-08T07:50:50.407Z,12.20
2018-07-08T07:52:32.546Z,9.90
2018-07-08T07:53:32.330Z,10.80
2018-07-08T07:55:56.830Z,10.70
2018-07-08T07:56:56.610Z,10.20
2018-07-08T07:57:56.593Z,8.60
2018-07-08T07:58:56.639Z,12.80
2018-07-08T07:59:56.563Z,10.40
2018-07-08T08:00:56.751Z,15.70
2018-07-08T08:01:56.532Z,11.40
2018-07-08T08:02:56.514Z,10.70
2018-07-08T08:03:56.499Z,13.10
2018-07-08T08:04:56.482Z,10.90
2018-07-08T08:05:56.466Z,14.10
2018-07-08T08:06:56.458Z,11.20
2018-07-08T08:07:56.640Z,14.20
2018-07-08T08:08:56.423Z,12.60
2018-07-08T08:09:56.609Z,7.50
2018-07-08T08:10:56.391Z,11.40
2018-07-08T08:11:56.579Z,11.20
2018-07-08T08:12:56.360Z,10.00
2018-07-08T08:13:56.625Z,12.80
2018-07-08T08:14:56.331Z,10.00
2018-07-08T08:15:56.516Z,10.70
2018-07-08T08:16:56.301Z,9.20
2018-07-08T08:17:56.282Z,10.10
2018-07-08T08:18:56.271Z,11.90
2018-07-08T08:19:56.456Z,13.10
2018-07-08T08:20:56.284Z,9.80
2018-07-08T08:21:56.224Z,9.10
2018-07-08T08:22:56.208Z,10.00
2018-07-08T08:23:56.394Z,10.10
2018-07-08T08:24:56.380Z,10.30
2018-07-08T08:25:56.162Z,10.10
2018-07-08T08:26:56.148Z,11.00
2018-07-08T08:27:56.132Z,13.40
2018-07-08T08:28:56.117Z,10.90
2018-07-08T08:29:56.103Z,12.00
2018-07-08T08:30:56.095Z,8.00
2018-07-08T08:31:56.082Z,10.90
2018-07-08T08:32:56.262Z,9.20
2018-07-08T08:33:56.046Z,12.30
2018-07-08T08:34:56.234Z,9.40
2018-07-08T08:35:56.218Z,8.80
2018-07-08T08:36:58.824Z,9.10
2018-07-08T08:37:56.191Z,9.20
2018-07-08T08:38:56.378Z,9.00
2018-07-08T08:39:56.173Z,9.60
2018-07-08T08:40:55.944Z,12.80
2018-07-08T08:41:55.930Z,11.30
2018-07-08T08:42:55.922Z,10.20
2018-07-08T08:43:55.903Z,12.20
2018-07-08T08:44:55.886Z,9.50
2018-07-08T08:45:55.904Z,9.60
2018-07-08T08:46:55.857Z,8.70
2018-07-08T08:47:55.844Z,11.40
2018-07-08T08:48:55.827Z,9.30
2018-07-08T08:50:38.440Z,9.00
2018-07-08T08:51:38.223Z,8.70
2018-07-08T08:52:38.208Z,7.40
2018-07-08T08:53:38.197Z,9.80
2018-07-08T08:54:38.184Z,11.30
2018-07-08T08:55:39.380Z,9.50
2018-07-08T08:56:38.357Z,11.20
2018-07-08T08:57:38.343Z,9.10
2018-07-08T08:58:38.327Z,11.60
2018-07-08T08:59:38.110Z,11.90
2018-07-08T09:00:38.097Z,9.60
2018-07-08T09:01:38.085Z,10.30
2018-07-08T09:02:38.071Z,9.70
2018-07-08T09:03:38.288Z,10.50
2018-07-08T09:04:38.043Z,13.30
2018-07-08T09:05:38.028Z,13.50
2018-07-08T09:06:38.218Z,10.60
2018-07-08T09:07:38.203Z,12.30
2018-07-08T09:08:37.988Z,12.80
2018-07-08T09:09:38.176Z,10.10
2018-07-08T09:10:37.958Z,10.10
2018-07-08T09:11:38.144Z,9.60
2018-07-08T09:12:37.930Z,12.00
2018-07-08T09:13:37.919Z,8.80
2018-07-08T09:14:37.907Z,9.70
2018-07-08T09:15:38.093Z,10.10
2018-07-08T09:16:38.083Z,12.00
2018-07-08T09:17:37.863Z,11.30
2018-07-08T09:18:37.848Z,8.20
2018-07-08T09:19:37.833Z,10.90
2018-07-08T09:20:38.023Z,9.50
2018-07-08T09:21:38.013Z,9.40
2018-07-08T09:23:20.159Z,10.30
2018-07-08T09:24:20.146Z,11.30
2018-07-08T09:25:22.749Z,11.50
2018-07-08T09:26:20.118Z,9.10
2018-07-08T09:27:19.900Z,9.60
2018-07-08T09:28:20.090Z,10.70
2018-07-08T09:29:20.106Z,11.00
2018-07-08T09:30:19.864Z,11.30
2018-07-08T09:31:20.052Z,14.00
2018-07-08T09:32:19.832Z,14.60
2018-07-08T09:34:44.342Z,10.10
2018-07-08T09:35:44.328Z,11.00
2018-07-08T09:36:44.113Z,10.00
2018-07-08T09:37:44.104Z,10.50
2018-07-08T09:38:44.352Z,11.90
2018-07-08T09:39:44.076Z,9.60
2018-07-08T09:40:44.066Z,9.80
2018-07-08T09:41:44.049Z,9.10
2018-07-08T09:42:44.238Z,9.10
2018-07-08T09:43:44.224Z,10.20
2018-07-08T09:44:44.211Z,10.50
2018-07-08T09:45:44.201Z,9.40
2018-07-08T09:46:43.990Z,12.70
2018-07-08T09:47:44.176Z,9.50
2018-07-08T09:48:44.162Z,8.10
2018-07-08T09:49:43.948Z,10.60
2018-07-08T09:50:43.935Z,11.00
2018-07-08T09:51:43.920Z,10.20
2018-07-08T09:52:43.913Z,11.10
2018-07-08T09:53:43.897Z,9.80
2018-07-08T09:54:43.881Z,9.50
2018-07-08T09:55:43.867Z,10.40
2018-07-08T09:56:43.864Z,8.70
2018-07-08T09:57:43.843Z,12.70
2018-07-08T09:58:43.833Z,8.00
2018-07-08T09:59:47.860Z,10.40
2018-07-08T10:00:44.008Z,7.10
2018-07-08T10:01:44.018Z,10.40
2018-07-08T10:02:43.784Z,8.30
2018-07-08T10:04:26.153Z,9.20
2018-07-08T10:05:26.123Z,9.20
2018-07-08T10:06:26.711Z,8.30
2018-07-08T10:07:26.096Z,8.10
2018-07-08T10:08:25.883Z,8.40
2018-07-08T10:09:25.866Z,8.90
2018-07-08T10:10:25.854Z,16.10
2018-07-08T10:11:25.839Z,11.10
2018-07-08T10:12:25.827Z,11.80
2018-07-08T10:13:25.813Z,11.70
2018-07-08T10:14:25.802Z,11.50
2018-07-08T10:15:25.791Z,11.60
2018-07-08T10:16:25.802Z,7.30
2018-07-08T10:17:25.769Z,10.60
2018-07-08T10:18:25.758Z,9.60
2018-07-08T10:19:25.834Z,12.10
2018-07-08T10:20:25.730Z,11.10
2018-07-08T10:21:25.925Z,8.30
2018-07-08T10:22:25.906Z,13.00
2018-07-08T10:23:25.691Z,9.00
2018-07-08T10:24:25.679Z,8.40
2018-07-08T10:25:25.740Z,10.50
2018-07-08T10:26:25.857Z,7.50
2018-07-08T10:27:28.467Z,11.70
2018-07-08T10:28:27.049Z,10.30
2018-07-08T10:29:25.823Z,9.60
2018-07-08T10:30:25.867Z,10.40
2018-07-08T10:31:25.594Z,12.10
2018-07-08T10:32:25.590Z,9.60
2018-07-08T10:33:25.774Z,10.50
2018-07-08T10:34:25.561Z,11.50
2018-07-08T10:35:25.593Z,9.60
2018-07-08T10:36:25.578Z,12.80
2018-07-08T10:37:25.520Z,9.30
2018-07-08T10:38:25.710Z,11.40
2018-07-08T10:39:25.709Z,10.20
2018-07-08T10:41:07.846Z,7.50
2018-07-08T10:42:07.833Z,9.90
2018-07-08T10:43:09.035Z,10.50
2018-07-08T10:44:07.809Z,13.00
2018-07-08T10:45:07.800Z,15.40
2018-07-08T10:46:50.549Z,11.00
2018-07-08T10:47:49.929Z,11.80
2018-07-08T10:48:49.916Z,13.20
2018-07-08T10:49:49.702Z,10.30
2018-07-08T10:50:49.971Z,17.60
2018-07-08T10:51:49.879Z,10.90
2018-07-08T10:52:49.664Z,9.60
2018-07-08T10:53:51.065Z,7.80
2018-07-08T10:54:49.637Z,14.20
2018-07-08T10:55:49.624Z,12.90
2018-07-08T10:56:49.616Z,10.70
2018-07-08T10:57:49.605Z,11.00
2018-07-08T10:58:49.598Z,11.90
2018-07-08T10:59:49.777Z,10.70
2018-07-08T11:00:49.767Z,13.20
2018-07-08T11:01:49.591Z,9.80
2018-07-08T11:02:49.541Z,10.10
2018-07-08T11:03:49.527Z,11.80
2018-07-08T11:04:49.717Z,11.10
2018-07-08T11:05:49.704Z,9.70
2018-07-08T11:06:49.490Z,13.10
2018-07-08T11:07:49.684Z,7.80
2018-07-08T11:08:49.668Z,11.00
2018-07-08T11:09:49.455Z,8.70
2018-07-08T11:10:49.681Z,12.80
2018-07-08T11:11:49.636Z,13.30
2018-07-08T11:12:49.425Z,13.20
2018-07-08T11:13:49.408Z,12.00
2018-07-08T11:14:49.406Z,8.90
2018-07-08T11:15:49.385Z,10.70
2018-07-08T11:16:49.374Z,10.40
2018-07-08T11:17:49.575Z,10.60
2018-07-08T11:18:49.355Z,12.90
2018-07-08T11:19:49.341Z,11.40
2018-07-08T11:20:49.574Z,8.00
2018-07-08T11:21:49.520Z,11.70
2018-07-08T11:22:49.507Z,11.40
2018-07-08T11:23:49.494Z,10.00
2018-07-08T11:24:49.283Z,9.70
2018-07-08T11:25:49.267Z,9.30
2018-07-08T11:26:49.255Z,12.70
2018-07-08T11:27:49.243Z,10.30
2018-07-08T11:28:49.436Z,11.60
2018-07-08T11:29:49.422Z,11.20
2018-07-08T11:30:49.208Z,12.00
2018-07-08T11:31:49.193Z,10.60
2018-07-08T11:32:52.009Z,10.80
2018-07-08T11:33:49.371Z,9.90
2018-07-08T11:34:49.358Z,11.40
2018-07-08T11:35:49.346Z,12.10
2018-07-08T11:36:49.331Z,12.10
2018-07-08T11:37:49.119Z,12.30
2018-07-08T11:38:49.101Z,12.10
2018-07-08T11:39:49.087Z,12.00
2018-07-08T11:40:49.075Z,9.90
2018-07-08T11:41:49.064Z,7.60
2018-07-08T11:42:49.118Z,10.40
2018-07-08T11:43:49.044Z,12.40
2018-07-08T11:44:49.025Z,11.90
2018-07-08T11:45:49.011Z,14.90
2018-07-08T11:46:48.998Z,9.40
2018-07-08T11:47:48.984Z,12.80
2018-07-08T11:48:48.972Z,10.20
2018-07-08T11:49:48.990Z,8.50
2018-07-08T11:50:49.153Z,9.60
2018-07-08T11:51:48.937Z,8.30
2018-07-08T11:52:48.927Z,12.50
2018-07-08T11:53:49.114Z,8.80
2018-07-08T11:54:48.902Z,11.30
2018-07-08T11:55:48.891Z,11.90
2018-07-08T11:56:48.879Z,10.00
2018-07-08T11:57:48.869Z,10.00
2018-07-08T11:58:48.860Z,11.10
2018-07-08T11:59:48.846Z,11.10
2018-07-08T12:00:48.838Z,13.00
2018-07-08T12:01:48.834Z,8.40
2018-07-08T12:02:48.811Z,6.10
2018-07-08T12:03:48.799Z,8.70
2018-07-08T12:04:48.787Z,9.30
2018-07-08T12:05:48.979Z,11.20
2018-07-08T12:06:48.766Z,8.50
2018-07-08T12:07:48.756Z,9.80
2018-07-08T12:08:48.747Z,8.40
2018-07-08T12:09:48.937Z,11.90
2018-07-08T12:10:48.724Z,9.90
2018-07-08T12:11:48.713Z,8.40
2018-07-08T12:12:48.700Z,8.60
2018-07-08T12:13:48.693Z,9.50
2018-07-08T12:14:48.677Z,8.20
2018-07-08T12:15:48.670Z,10.10
2018-07-08T12:16:48.655Z,12.00
2018-07-08T12:17:48.856Z,8.20
2018-07-08T12:18:48.636Z,7.00
2018-07-08T12:19:48.625Z,10.10
2018-07-08T12:20:48.816Z,8.00
2018-07-08T12:21:48.805Z,5.70
2018-07-08T12:22:48.593Z,9.20
2018-07-08T12:23:51.405Z,9.50
2018-07-08T12:24:48.573Z,12.10
2018-07-08T12:25:48.558Z,6.30
2018-07-08T12:26:48.548Z,10.20
2018-07-08T12:27:48.536Z,9.60
2018-07-08T12:28:48.524Z,5.30
2018-07-08T12:29:51.947Z,7.40
2018-07-08T12:30:48.708Z,6.70
2018-07-08T12:31:48.699Z,11.00
2018-07-08T12:33:30.846Z,9.30
2018-07-08T12:36:12.987Z,10.20
2018-07-08T12:37:55.137Z,13.00
2018-07-08T12:47:21.074Z,9.90
2018-07-08T12:48:20.849Z,8.20
2018-07-08T12:53:06.596Z,11.60
2018-07-08T12:56:09.641Z,10.40
2018-07-08T12:57:09.423Z,8.00
2018-07-08T12:58:09.410Z,11.20
2018-07-08T13:02:33.900Z,8.70
2018-07-08T13:03:33.686Z,8.00
2018-07-08T13:04:33.680Z,8.30
2018-07-08T13:05:33.670Z,9.50
2018-07-08T13:08:40.336Z,8.20
2018-07-08T13:11:46.868Z,10.50
2018-07-08T13:12:47.605Z,11.10
2018-07-08T13:13:46.783Z,9.00
2018-07-08T13:26:19.207Z,8.40
2018-07-08T13:31:10.418Z,9.40
2018-07-08T13:32:07.623Z,8.10
2018-07-08T14:01:14.164Z,11.00
2018-07-08T14:02:13.947Z,8.10
2018-07-08T14:03:14.543Z,9.80
2018-07-08T14:04:14.124Z,11.60
2018-07-08T14:05:13.907Z,10.50
2018-07-08T14:06:56.254Z,7.60
2018-07-08T14:07:56.057Z,11.70
2018-07-08T14:08:56.025Z,10.20
2018-07-08T14:09:56.015Z,9.30
2018-07-08T14:10:56.003Z,10.80
2018-07-08T14:11:56.190Z,12.10
2018-07-08T14:21:22.096Z,8.20
2018-07-08T14:23:04.236Z,8.40
2018-07-08T14:26:47.463Z,11.30